Time;durP1;ratioP1;P1;durP2;ratioP2;P2;SDS_P1;SDS_P2;PMS_P1;PMS_P2;Temp;Humidity;BMP_temperature;BMP_pressure;BME280_temperature;BME280_humidity;BME280_pressure;Samples;Min_cycle;Max_cycle;Signal;HPM_P1;HPM_P2
2022/08/24 00:01:37;;;;;;;36.97;7.50;;;;;;;24.33;50.54;100358.44;124203;1102;104163;-77
2022/08/24 00:04:08;;;;;;;36.67;7.87;;;;;;;24.19;51.05;100360.56;124155;1102;104221;-77
2022/08/24 00:06:39;;;;;;;37.77;8.00;;;;;;;24.08;51.16;100362.61;124250;1102;104653;-78
2022/08/24 00:09:10;;;;;;;35.23;8.30;;;;;;;23.95;51.47;100370.92;124142;1102;104214;-77
2022/08/24 00:11:41;;;;;;;40.07;9.17;;;;;;;23.86;52.36;100381.83;124196;1102;102931;-77
2022/08/24 00:14:13;;;;;;;38.93;8.27;;;;;;;23.72;52.23;100373.14;124235;1102;102925;-77
2022/08/24 00:16:45;;;;;;;33.33;7.83;;;;;;;23.58;52.99;100374.32;124227;1102;102354;-77
2022/08/24 00:19:16;;;;;;;32.50;7.73;;;;;;;23.48;54.14;100373.63;124198;1102;104255;-76
2022/08/24 00:21:48;;;;;;;34.70;7.83;;;;;;;23.37;53.99;100372.93;124202;1101;104163;-75
2022/08/24 00:24:20;;;;;;;35.53;8.17;;;;;;;23.31;54.60;100376.63;124154;1102;104172;-76
2022/08/24 00:26:52;;;;;;;37.73;7.43;;;;;;;23.24;54.92;100368.74;124174;1102;104230;-77
2022/08/24 00:29:24;;;;;;;37.27;7.23;;;;;;;23.19;54.98;100370.59;124122;1102;104156;-76
2022/08/24 00:31:56;;;;;;;38.73;7.37;;;;;;;23.18;54.88;100364.38;124179;1101;102674;-75
2022/08/24 00:34:28;;;;;;;34.50;7.60;;;;;;;23.15;55.00;100368.01;124221;1102;104326;-76
2022/08/24 00:37:00;;;;;;;36.95;8.10;;;;;;;23.11;55.29;100360.94;124193;1102;104246;-76
2022/08/24 00:39:32;;;;;;;48.57;8.77;;;;;;;23.11;55.33;100365.41;124156;1102;102279;-76
2022/08/24 00:42:03;;;;;;;38.00;7.73;;;;;;;23.09;56.18;100364.53;124129;1102;104232;-76
2022/08/24 00:44:35;;;;;;;42.83;7.77;;;;;;;23.04;56.14;100371.73;124212;1102;104188;-77
2022/08/24 00:47:16;;;;;;;41.07;7.23;;;;;;;23.00;56.18;100365.57;124181;1102;104257;-76
2022/08/24 00:49:56;;;;;;;34.13;7.50;;;;;;;22.98;56.29;100367.38;124190;1102;103274;-76
2022/08/24 00:52:32;;;;;;;38.23;7.73;;;;;;;22.94;56.33;100361.20;124146;1102;102899;-76
2022/08/24 00:55:08;;;;;;;50.80;7.97;;;;;;;22.91;56.95;100374.62;124179;1102;108035;-76
2022/08/24 00:57:42;;;;;;;45.47;7.83;;;;;;;22.91;57.07;100377.30;124150;1102;104182;-76
2022/08/24 01:00:18;;;;;;;37.33;7.60;;;;;;;22.88;56.91;100374.69;124159;1102;102930;-76
2022/08/24 01:02:52;;;;;;;35.93;6.83;;;;;;;22.88;56.76;100377.36;124183;1102;104339;-76
2022/08/24 01:05:24;;;;;;;34.90;7.13;;;;;;;22.84;56.95;100380.98;124154;1102;118223;-76
2022/08/24 01:07:55;;;;;;;32.67;6.53;;;;;;;22.80;56.58;100380.16;124190;1102;104188;-76
2022/08/24 01:10:31;;;;;;;33.27;7.03;;;;;;;22.79;56.53;100370.36;124235;1102;104203;-76
2022/08/24 01:13:05;;;;;;;30.20;6.17;;;;;;;22.77;56.88;100373.98;124202;1102;103086;-77
2022/08/24 01:15:47;;;;;;;43.10;7.70;;;;;;;22.76;57.09;100377.56;124216;1102;104794;-76
2022/08/24 01:21:15;;;;;;;36.30;6.90;;;;;;;22.75;57.33;100367.76;124211;1102;104054;-76
2022/08/24 01:23:49;;;;;;;39.80;7.00;;;;;;;22.73;57.53;100372.27;124221;1102;104280;-77
2022/08/24 01:26:27;;;;;;;38.87;6.83;;;;;;;22.70;58.01;100362.48;124137;1102;104262;-76
2022/08/24 01:29:02;;;;;;;32.60;7.10;;;;;;;22.70;58.00;100366.96;124206;1102;104185;-76
2022/08/24 01:31:34;;;;;;;30.27;6.60;;;;;;;22.66;58.14;100376.84;124195;1102;104238;-76
2022/08/24 01:34:06;;;;;;;36.47;7.13;;;;;;;22.61;58.08;100371.56;124164;1102;102599;-76
2022/08/24 01:36:40;;;;;;;37.03;7.33;;;;;;;22.60;59.13;100366.23;124175;1102;104223;-75
2022/08/24 01:39:15;;;;;;;36.70;7.07;;;;;;;22.53;59.22;100369.91;124161;1100;104281;-75
2022/08/24 01:41:47;;;;;;;35.33;7.23;;;;;;;22.50;59.78;100380.64;124190;1102;102959;-76
2022/08/24 01:44:18;;;;;;;36.03;7.40;;;;;;;22.38;59.14;100361.22;124203;1102;104224;-76
2022/08/24 01:46:53;;;;;;;32.47;7.20;;;;;;;22.39;59.54;100376.36;124212;1102;101992;-76
2022/08/24 01:49:34;;;;;;;38.87;7.07;;;;;;;22.37;60.08;100367.46;124219;1102;104054;-75
2022/08/24 01:52:06;;;;;;;31.57;6.87;;;;;;;22.37;59.83;100374.61;124207;1102;104264;-76
2022/08/24 01:54:39;;;;;;;33.10;6.67;;;;;;;22.39;59.28;100381.71;124174;1102;104230;-75
2022/08/24 01:57:11;;;;;;;36.33;7.00;;;;;;;22.40;60.06;100377.23;124104;1102;104188;-76
2022/08/24 01:59:43;;;;;;;36.13;7.67;;;;;;;22.40;59.94;100383.45;124187;1102;104252;-76
2022/08/24 02:02:17;;;;;;;36.90;6.90;;;;;;;22.43;60.77;100382.53;124184;1102;104229;-76
2022/08/24 02:04:49;;;;;;;37.50;6.80;;;;;;;22.40;60.34;100385.26;124164;1102;104281;-76
2022/08/24 02:07:21;;;;;;;38.57;7.63;;;;;;;22.37;60.82;100383.50;124182;1102;103237;-75
2022/08/24 02:09:53;;;;;;;34.80;6.53;;;;;;;22.34;60.46;100383.55;124171;1102;104162;-76
2022/08/24 02:12:25;;;;;;;38.70;7.03;;;;;;;22.34;60.12;100383.55;124125;1102;104319;-76
2022/08/24 02:14:56;;;;;;;31.47;7.40;;;;;;;22.33;60.83;100381.80;124259;1102;104217;-76
2022/08/24 02:17:28;;;;;;;31.20;8.13;;;;;;;22.34;60.43;100391.56;124240;1102;104153;-75
2022/08/24 02:20:00;;;;;;;32.10;7.17;;;;;;;22.34;60.81;100390.69;124167;1102;102854;-76
2022/08/24 02:22:32;;;;;;;35.43;6.63;;;;;;;22.32;61.00;100388.04;124184;1102;104265;-75
2022/08/24 02:25:03;;;;;;;42.77;7.13;;;;;;;22.29;60.85;100388.05;124166;1102;104328;-76
2022/08/24 02:27:35;;;;;;;43.93;7.47;;;;;;;22.30;60.82;100392.53;124173;1102;104255;-76
2022/08/24 02:30:16;;;;;;;29.53;6.83;;;;;;;22.28;60.89;100390.75;124124;1102;102877;-77
2022/08/24 02:32:47;;;;;;;31.53;7.33;;;;;;;22.29;61.18;100392.52;124204;1102;104338;-77
2022/08/24 02:35:18;;;;;;;35.87;6.80;;;;;;;22.27;61.33;100381.86;124168;1102;102775;-76
2022/08/24 02:37:51;;;;;;;33.47;5.70;;;;;;;22.25;60.83;100379.20;124125;1102;104179;-76
2022/08/24 02:40:23;;;;;;;41.83;6.80;;;;;;;22.24;61.00;100380.09;124171;1102;104744;-76
2022/08/24 02:42:54;;;;;;;36.70;7.07;;;;;;;22.23;61.71;100372.10;124171;1102;102778;-77
2022/08/24 02:45:26;;;;;;;36.17;6.73;;;;;;;22.24;60.96;100369.41;124282;1102;104162;-77
2022/08/24 02:47:58;;;;;;;32.10;6.83;;;;;;;22.23;61.57;100364.95;124174;1102;104262;-76
2022/08/24 02:50:29;;;;;;;32.87;7.73;;;;;;;22.23;61.85;100366.76;124201;1102;104156;-77
2022/08/24 02:53:01;;;;;;;34.40;7.63;;;;;;;22.25;62.38;100368.52;124228;1101;104271;-76
2022/08/24 02:55:33;;;;;;;35.20;5.97;;;;;;;22.23;62.01;100364.09;124163;1102;103062;-76
2022/08/24 02:58:04;;;;;;;33.60;7.27;;;;;;;22.18;61.74;100356.13;124193;1102;104243;-76
2022/08/24 03:00:40;;;;;;;32.73;7.07;;;;;;;22.14;61.88;100351.73;124210;1102;104239;-77
2022/08/24 03:03:12;;;;;;;28.93;7.03;;;;;;;22.12;62.03;100353.55;124160;1102;104366;-77
2022/08/24 03:05:43;;;;;;;29.97;6.63;;;;;;;22.11;62.61;100350.90;124228;1102;104219;-76
2022/08/24 03:08:14;;;;;;;31.73;6.50;;;;;;;22.07;62.85;100350.94;124162;1102;104169;-76
2022/08/24 03:10:46;;;;;;;29.30;6.03;;;;;;;22.05;62.24;100352.76;124170;1102;102287;-76
2022/08/24 03:13:18;;;;;;;31.97;7.07;;;;;;;22.02;62.56;100351.93;124175;1103;104311;-77
2022/08/24 03:15:49;;;;;;;33.17;7.33;;;;;;;22.00;62.73;100357.30;124141;1102;104179;-76
2022/08/24 03:18:20;;;;;;;33.47;6.50;;;;;;;21.97;63.19;100361.77;124227;1102;104252;-76
2022/08/24 03:20:51;;;;;;;38.63;6.83;;;;;;;21.97;63.39;100362.67;124185;1102;104264;-76
2022/08/24 03:23:23;;;;;;;33.63;6.40;;;;;;;21.97;63.56;100360.00;124188;1102;104328;-77
2022/08/24 03:25:55;;;;;;;22.10;6.07;;;;;;;22.01;63.08;100360.84;124167;1102;104246;-76
2022/08/24 03:28:26;;;;;;;35.30;6.40;;;;;;;22.02;62.79;100360.81;124159;1102;104259;-77
2022/08/24 03:30:58;;;;;;;25.90;6.27;;;;;;;22.04;63.04;100366.14;124227;1102;104249;-76
2022/08/24 03:33:30;;;;;;;28.27;6.70;;;;;;;22.04;63.73;100358.13;124215;1102;104251;-77
2022/08/24 03:36:01;;;;;;;28.70;6.23;;;;;;;22.05;63.43;100378.61;124202;1102;102092;-76
2022/08/24 03:38:33;;;;;;;30.57;6.43;;;;;;;22.03;63.53;100369.70;124162;1102;102093;-77
2022/08/24 03:41:04;;;;;;;28.67;6.37;;;;;;;22.02;63.92;100365.28;124214;1102;104172;-76
2022/08/24 03:43:47;;;;;;;28.37;5.80;;;;;;;22.03;63.87;100370.61;124213;1102;102375;-76
2022/08/24 03:46:22;;;;;;;35.37;6.67;;;;;;;22.04;63.44;100356.33;124188;1102;104207;-76
2022/08/24 03:48:55;;;;;;;33.67;6.43;;;;;;;22.04;64.01;100361.67;124202;1102;102285;-76
2022/08/24 03:51:29;;;;;;;27.10;6.17;;;;;;;22.05;63.30;100360.77;124207;1102;104179;-78
2022/08/24 03:54:01;;;;;;;29.30;6.80;;;;;;;22.05;64.23;100357.23;124121;1102;104554;-76
2022/08/24 03:56:32;;;;;;;26.53;5.93;;;;;;;22.07;63.98;100360.75;124171;1102;104862;-77
2022/08/24 03:59:06;;;;;;;27.00;6.40;;;;;;;22.08;63.87;100362.53;124172;1102;104162;-76
2022/08/24 04:01:41;;;;;;;26.23;5.60;;;;;;;22.09;63.76;100361.61;124235;1101;104389;-77
2022/08/24 04:04:13;;;;;;;32.00;6.10;;;;;;;22.10;63.48;100363.38;124260;1101;104264;-76
2022/08/24 04:06:45;;;;;;;32.30;7.23;;;;;;;22.10;64.48;100354.50;124158;1100;104160;-76
2022/08/24 04:09:17;;;;;;;29.23;6.57;;;;;;;22.11;64.34;100353.57;124186;1102;103002;-77
2022/08/24 04:11:50;;;;;;;20.87;6.63;;;;;;;22.12;63.92;100366.91;124233;1102;104319;-78
2022/08/24 04:14:26;;;;;;;33.00;6.63;;;;;;;22.16;64.06;100359.72;124193;1101;104229;-78
2022/08/24 04:17:03;;;;;;;33.70;7.87;;;;;;;22.18;63.91;100366.82;124184;1103;104197;-78
2022/08/24 04:19:56;;;;;;;33.63;7.00;;;;;;;22.19;64.18;100365.92;124274;1102;102291;-78
2022/08/24 04:22:29;;;;;;;32.97;6.90;;;;;;;22.21;64.89;100363.23;124244;1102;104329;-78
2022/08/24 04:25:00;;;;;;;27.25;6.22;;;;;;;22.23;64.62;100372.10;124248;1102;104226;-77
2022/08/24 04:27:32;;;;;;;30.63;6.07;;;;;;;22.29;63.97;100373.81;124190;1102;104172;-78
2022/08/24 04:30:03;;;;;;;31.57;6.77;;;;;;;22.34;64.26;100374.66;124234;1102;102326;-77
2022/08/24 04:32:38;;;;;;;27.77;6.60;;;;;;;22.38;64.02;100376.39;124148;1102;104325;-78
2022/08/24 04:35:10;;;;;;;28.73;6.53;;;;;;;22.42;63.90;100375.41;124230;1102;102788;-77
2022/08/24 04:37:42;;;;;;;26.03;6.40;;;;;;;22.44;64.03;100377.17;124268;1102;104328;-78
2022/08/24 04:40:14;;;;;;;31.10;6.17;;;;;;;22.48;63.90;100387.81;124252;1102;102167;-77
2022/08/24 04:42:54;;;;;;;35.03;6.50;;;;;;;22.52;63.70;100389.55;124247;1102;102912;-78
2022/08/24 04:45:28;;;;;;;28.87;7.00;;;;;;;22.56;63.71;100386.80;124253;1102;104183;-77
2022/08/24 04:48:00;;;;;;;31.63;6.60;;;;;;;22.60;63.22;100383.16;124272;1102;102829;-77
2022/08/24 04:50:40;;;;;;;34.73;6.90;;;;;;;22.64;63.37;100372.41;124155;1102;104249;-76
2022/08/24 04:53:13;;;;;;;35.27;6.90;;;;;;;22.70;63.17;100369.64;124219;1102;104165;-76
2022/08/24 04:55:47;;;;;;;33.50;7.40;;;;;;;22.73;63.17;100362.44;124213;1102;102914;-76
2022/08/24 04:58:19;;;;;;;31.77;7.53;;;;;;;22.76;62.81;100362.38;124203;1102;104153;-76
2022/08/24 05:00:50;;;;;;;38.10;7.37;;;;;;;22.82;62.75;100363.22;124213;1102;103270;-77
2022/08/24 05:03:23;;;;;;;32.23;7.43;;;;;;;22.88;62.65;100365.78;124209;1105;104223;-77
2022/08/24 05:05:55;;;;;;;29.20;6.90;;;;;;;22.91;62.98;100379.11;124169;1101;102020;-77
2022/08/24 05:08:26;;;;;;;30.97;7.40;;;;;;;22.98;62.58;100378.98;124232;1102;104165;-77
2022/08/24 05:10:58;;;;;;;31.87;7.27;;;;;;;23.04;62.32;100383.32;124201;1102;104188;-77
2022/08/24 05:13:30;;;;;;;24.67;6.50;;;;;;;23.08;62.12;100374.37;124198;1102;104335;-78
2022/08/24 05:16:05;;;;;;;25.67;6.50;;;;;;;23.13;61.68;100371.61;124143;1102;104156;-77
2022/08/24 05:18:39;;;;;;;35.30;7.53;;;;;;;23.17;61.46;100376.01;124232;1102;103337;-77
2022/08/24 05:21:17;;;;;;;32.43;7.63;;;;;;;23.24;61.18;100380.32;124283;1102;104222;-78
2022/08/24 05:23:51;;;;;;;34.87;7.27;;;;;;;23.31;61.48;100391.78;124184;1102;102980;-77
2022/08/24 05:26:27;;;;;;;30.97;6.80;;;;;;;23.37;61.08;100391.67;124222;1102;102387;-78
2022/08/24 05:29:01;;;;;;;27.77;7.60;;;;;;;23.44;61.19;100387.11;124219;1102;104156;-78
2022/08/24 05:31:37;;;;;;;34.13;7.90;;;;;;;23.51;60.94;100378.92;124241;1101;102302;-77
2022/08/24 05:34:14;;;;;;;36.30;8.30;;;;;;;23.54;60.32;100372.61;124263;1102;104185;-78
2022/08/24 05:39:41;;;;;;;29.97;7.70;;;;;;;23.59;59.27;100386.81;124233;1102;104057;-76
2022/08/24 05:42:14;;;;;;;31.87;7.13;;;;;;;23.65;59.11;100385.78;124255;1102;104318;-77
2022/08/24 05:44:50;;;;;;;22.10;6.80;;;;;;;23.71;58.31;100390.15;124213;1102;104261;-76
2022/08/24 05:47:24;;;;;;;25.67;7.50;;;;;;;23.75;57.94;100382.02;124262;1102;104325;-76
2022/08/24 05:50:00;;;;;;;22.77;6.77;;;;;;;23.78;57.06;100391.77;124165;1102;102988;-76
2022/08/24 05:52:33;;;;;;;28.37;7.07;;;;;;;23.81;56.69;100399.73;124353;1102;104399;-77
2022/08/24 05:55:08;;;;;;;23.07;7.10;;;;;;;23.85;56.48;100385.41;124229;1102;104286;-76
2022/08/24 05:57:42;;;;;;;21.48;6.80;;;;;;;23.91;55.87;100377.24;124271;1102;104169;-77
2022/08/24 06:00:27;;;;;;;29.07;6.80;;;;;;;23.99;56.10;100388.67;125323;1102;102778;-76
2022/08/24 06:03:00;;;;;;;21.57;7.03;;;;;;;24.08;56.14;100390.28;124922;1102;104249;-75
2022/08/24 06:05:43;;;;;;;26.77;7.67;;;;;;;24.14;55.25;100397.32;124920;1102;102274;-76
2022/08/24 06:08:17;;;;;;;24.07;7.60;;;;;;;24.19;55.37;100396.28;124945;1102;104258;-77
2022/08/24 06:11:02;;;;;;;26.03;7.70;;;;;;;24.28;55.25;100400.56;124913;1102;104185;-77
2022/08/24 06:13:37;;;;;;;19.90;7.30;;;;;;;24.34;54.68;100395.06;124972;1102;101912;-77
2022/08/24 06:16:12;;;;;;;21.35;7.55;;;;;;;24.34;55.08;100384.34;124925;1102;104259;-77
2022/08/24 06:18:55;;;;;;;22.97;6.53;;;;;;;24.46;54.24;100385.84;124945;1102;104205;-77
2022/08/24 06:21:31;;;;;;;29.60;7.30;;;;;;;24.55;54.59;100387.43;124245;1099;110742;-76
2022/08/24 06:24:09;;;;;;;21.37;7.03;;;;;;;24.64;53.92;100387.24;124291;1102;104194;-76
2022/08/24 06:29:37;;;;;;;23.10;7.27;;;;;;;24.73;52.97;100389.70;124229;1102;105902;-77
2022/08/24 06:32:29;;;;;;;21.23;7.10;;;;;;;24.78;51.57;100380.64;124293;1102;102778;-76
2022/08/24 06:35:02;;;;;;;17.63;6.90;;;;;;;24.83;52.25;100384.98;124236;1099;102781;-77
2022/08/24 06:37:35;;;;;;;25.07;7.07;;;;;;;24.90;52.13;100378.55;124228;1102;104214;-76
2022/08/24 06:40:11;;;;;;;21.20;6.93;;;;;;;24.99;51.59;100381.91;124298;1102;103888;-76
2022/08/24 06:42:43;;;;;;;19.37;7.40;;;;;;;25.03;50.87;100379.11;124654;1102;102609;-75
2022/08/24 06:45:26;;;;;;;17.23;6.70;;;;;;;25.10;51.16;100380.72;124195;1103;102115;-76
2022/08/24 06:47:59;;;;;;;21.90;6.73;;;;;;;25.15;50.15;100379.70;124196;1102;104232;-76
2022/08/24 06:50:33;;;;;;;19.90;7.25;;;;;;;25.25;50.82;100387.47;124680;1102;102175;-76
2022/08/24 06:53:06;;;;;;;20.63;7.40;;;;;;;25.36;51.07;100381.84;124239;1102;102535;-76
2022/08/24 06:55:46;;;;;;;22.40;7.17;;;;;;;25.46;50.38;100380.67;124186;1102;104325;-77
2022/08/24 06:58:19;;;;;;;23.37;7.80;;;;;;;25.60;50.11;100387.45;124309;1099;102433;-76
2022/08/24 07:00:53;;;;;;;23.67;7.93;;;;;;;25.73;48.92;100383.50;124245;1102;102289;-76
2022/08/24 07:03:30;;;;;;;20.53;7.40;;;;;;;25.84;49.27;100377.81;124227;1102;104619;-78
2022/08/24 07:06:13;;;;;;;25.07;7.20;;;;;;;25.98;48.78;100382.81;124196;1102;102454;-76
2022/08/24 07:08:55;;;;;;;25.20;7.30;;;;;;;26.11;48.15;100386.88;124541;1101;102953;-76
2022/08/24 07:11:31;;;;;;;21.70;7.00;;;;;;;26.25;48.71;100378.38;125693;1099;102669;-78
2022/08/24 07:14:21;;;;;;;22.50;7.37;;;;;;;26.41;48.44;100392.22;125143;1101;104290;-76
2022/08/24 07:16:55;;;;;;;23.97;7.10;;;;;;;26.49;47.60;100390.19;125817;1099;101664;-77
2022/08/24 07:19:40;;;;;;;20.17;7.10;;;;;;;26.61;47.43;100388.02;126144;1099;103439;-76
2022/08/24 07:22:13;;;;;;;23.57;7.10;;;;;;;26.65;46.39;100377.14;125837;1102;104108;-75
2022/08/24 07:24:59;;;;;;;25.83;6.60;;;;;;;26.80;47.02;100382.94;124946;1099;104169;-76
2022/08/24 07:27:40;;;;;;;18.73;7.00;;;;;;;26.98;46.46;100384.14;124935;1100;104226;-76
2022/08/24 07:30:12;;;;;;;27.20;7.17;;;;;;;27.12;46.22;100389.05;124953;1099;104281;-76
2022/08/24 07:32:44;;;;;;;20.37;6.93;;;;;;;27.21;46.43;100381.52;124255;1102;104165;-74
2022/08/24 07:35:33;;;;;;;24.00;7.00;;;;;;;27.29;46.04;100381.25;124628;1102;102571;-75
2022/08/24 07:38:23;;;;;;;23.67;7.63;;;;;;;27.46;45.60;100385.17;124179;1099;102461;-75
2022/08/24 07:41:11;;;;;;;22.70;6.80;;;;;;;27.54;44.92;100381.27;124128;1102;104443;-76
2022/08/24 07:43:45;;;;;;;25.63;7.27;;;;;;;27.61;45.32;100390.00;124190;1100;104285;-76
2022/08/24 07:49:57;;;;;;;23.50;7.27;;;;;;;27.85;44.84;100387.36;124255;1102;102602;-76
2022/08/24 07:52:34;;;;;;;24.07;6.83;;;;;;;27.97;44.31;100394.98;124768;1099;104223;-78
2022/08/24 07:55:24;;;;;;;24.87;7.77;;;;;;;28.08;43.86;100386.48;125016;1099;104178;-78
2022/08/24 07:57:58;;;;;;;24.05;7.00;;;;;;;28.21;44.37;100387.77;124947;1099;104239;-77
2022/08/24 08:00:31;;;;;;;22.23;6.93;;;;;;;28.22;43.80;100392.23;125486;1100;102993;-78
2022/08/24 08:03:11;;;;;;;29.13;8.43;;;;;;;28.26;42.93;100392.98;125260;1099;104258;-78
2022/08/24 08:06:01;;;;;;;23.87;7.53;;;;;;;28.36;43.80;100391.69;125040;1099;104323;-77
2022/08/24 08:08:47;;;;;;;25.70;7.13;;;;;;;28.45;43.26;100396.69;124977;1099;104264;-77
2022/08/24 08:11:30;;;;;;;23.70;6.60;;;;;;;28.53;42.99;100390.98;124953;1099;104255;-77
2022/08/24 08:14:07;;;;;;;29.17;7.40;;;;;;;28.66;43.44;100397.69;124987;1101;117769;-78
2022/08/24 08:16:46;;;;;;;26.17;7.50;;;;;;;28.77;43.20;100390.97;124957;1102;104181;-78
2022/08/24 08:19:22;;;;;;;26.60;8.17;;;;;;;28.96;42.86;100386.53;125531;1101;101829;-77
2022/08/24 08:25:18;;;;;;;32.95;8.35;;;;;;;29.31;42.94;100392.28;124423;1099;104162;-80
2022/08/24 08:27:59;;;;;;;26.73;8.10;;;;;;;29.40;42.40;100391.88;125037;1102;104214;-76
2022/08/24 08:30:31;;;;;;;25.90;8.07;;;;;;;29.48;42.07;100387.93;124431;1099;104200;-76
2022/08/24 08:33:06;;;;;;;20.97;7.57;;;;;;;29.54;42.02;100393.06;124802;1102;104158;-78
2022/08/24 08:35:43;;;;;;;25.50;6.80;;;;;;;29.55;41.81;100386.72;124461;1102;104287;-78
2022/08/24 08:38:32;;;;;;;31.93;8.00;;;;;;;29.53;41.82;100392.20;125000;1102;104282;-77
2022/08/24 08:41:43;;;;;;;28.47;7.30;;;;;;;29.38;41.33;100382.07;124984;1102;104255;-78
2022/08/24 08:44:36;;;;;;;29.53;8.60;;;;;;;29.16;41.13;100382.11;125014;1101;104160;-79
2022/08/24 08:47:42;;;;;;;24.33;7.67;;;;;;;29.09;41.29;100388.70;125065;1102;102288;-80
2022/08/24 08:50:30;;;;;;;30.67;7.90;;;;;;;28.98;41.57;100367.56;124963;1102;104165;-78
2022/08/24 08:53:44;;;;;;;30.10;10.63;;;;;;;29.13;41.58;100371.44;124986;1102;104283;-78
2022/08/24 08:56:42;;;;;;;28.53;7.40;;;;;;;29.29;40.83;100377.94;124872;1102;104165;-78
2022/08/24 08:59:40;;;;;;;26.13;7.00;;;;;;;29.46;40.87;100368.21;124999;1099;104259;-79
2022/08/24 09:02:32;;;;;;;31.17;7.70;;;;;;;29.64;40.38;100371.89;125047;1102;104079;-80
2022/08/24 09:05:39;;;;;;;36.67;8.03;;;;;;;29.79;40.33;100373.02;125027;1102;110637;-79
2022/08/24 09:08:21;;;;;;;28.20;7.73;;;;;;;29.83;40.08;100372.84;125065;1099;104224;-78
2022/08/24 09:11:04;;;;;;;30.57;8.10;;;;;;;29.75;39.34;100375.87;125113;1099;104191;-78
2022/08/24 09:14:04;;;;;;;35.23;7.77;;;;;;;29.86;39.75;100377.24;124813;1101;104395;-76
2022/08/24 09:17:09;;;;;;;30.37;7.33;;;;;;;29.98;39.25;100370.36;124409;1100;104073;-77
2022/08/24 09:19:55;;;;;;;26.50;7.30;;;;;;;30.07;39.08;100367.22;124231;1099;104217;-77
2022/08/24 09:22:28;;;;;;;29.00;7.83;;;;;;;30.04;39.07;100370.07;124352;1099;104176;-75
2022/08/24 09:25:22;;;;;;;34.70;7.30;;;;;;;30.06;38.95;100366.36;124758;1099;103064;-77
2022/08/24 09:28:35;;;;;;;40.07;7.83;;;;;;;30.10;38.80;100367.94;125420;1098;102692;-79
2022/08/24 09:31:40;;;;;;;38.50;7.50;;;;;;;30.19;38.54;100360.36;126121;1098;102302;-78
2022/08/24 09:34:33;;;;;;;27.10;7.63;;;;;;;30.29;38.49;100354.42;124975;1099;104214;-78
2022/08/24 09:37:32;;;;;;;29.03;7.17;;;;;;;30.43;38.18;100356.48;125083;1099;104291;-77
2022/08/24 09:40:27;;;;;;;32.17;7.70;;;;;;;30.54;38.16;100358.66;125074;1099;103333;-77
2022/08/24 09:43:44;;;;;;;32.83;8.00;;;;;;;30.62;38.04;100344.71;124531;1099;102516;-79
2022/08/24 09:47:06;;;;;;;33.80;7.53;;;;;;;30.84;37.79;100352.65;125565;1099;104149;-78
2022/08/24 09:50:36;;;;;;;27.80;7.30;;;;;;;30.92;37.42;100352.25;124628;1099;102327;-78
2022/08/24 09:53:45;;;;;;;29.37;7.07;;;;;;;30.79;37.48;100347.47;124926;1102;104360;-78
2022/08/24 09:56:57;;;;;;;;;;;;;;;30.95;37.54;100341.27;125037;1099;118337;-77
2022/08/24 10:00:04;;;;;;;37.03;8.23;;;;;;;31.02;37.01;100340.00;125014;1099;104229;-78
2022/08/24 10:03:12;;;;;;;38.23;8.73;;;;;;;31.04;36.94;100329.08;124522;1099;102906;-78
2022/08/24 10:06:10;;;;;;;38.03;8.10;;;;;;;31.10;36.96;100336.89;124777;1099;102323;-75
2022/08/24 10:09:07;;;;;;;36.80;8.60;;;;;;;31.10;36.83;100332.34;124231;1099;104204;-76
2022/08/24 10:11:52;;;;;;;28.67;7.43;;;;;;;31.12;36.66;100337.67;124371;1099;104655;-76
2022/08/24 10:14:45;;;;;;;35.53;8.10;;;;;;;31.16;36.45;100332.02;124262;1099;102788;-75
2022/08/24 10:17:32;;;;;;;35.13;7.00;;;;;;;31.17;36.70;100338.33;124334;1099;104259;-75
2022/08/24 10:20:14;;;;;;;42.05;7.62;;;;;;;31.03;36.56;100330.06;124450;1099;104118;-75
2022/08/24 10:23:06;;;;;;;32.57;7.17;;;;;;;30.92;36.72;100336.87;124379;1099;104198;-74
2022/08/24 10:25:50;;;;;;;31.87;7.23;;;;;;;30.87;36.71;100338.95;124444;1099;104335;-75
2022/08/24 10:28:48;;;;;;;37.63;8.47;;;;;;;30.82;36.77;100333.77;124376;1099;104188;-75
2022/08/24 10:31:33;;;;;;;41.30;7.40;;;;;;;30.75;36.44;100332.31;124399;1102;104159;-74
2022/08/24 10:34:33;;;;;;;47.07;8.73;;;;;;;30.72;36.29;100337.89;124334;1099;102032;-75
2022/08/24 10:37:25;;;;;;;46.63;8.33;;;;;;;30.68;35.90;100338.13;124430;1099;102783;-75
2022/08/24 10:40:28;;;;;;;45.70;8.95;;;;;;;30.69;35.99;100339.89;124296;1099;104178;-75
2022/08/24 10:43:35;;;;;;;39.30;8.23;;;;;;;30.65;35.56;100334.63;124271;1102;104229;-75
2022/08/24 10:46:52;;;;;;;42.90;8.67;;;;;;;30.61;35.32;100340.27;124299;1099;103300;-75
2022/08/24 10:50:00;;;;;;;54.30;9.00;;;;;;;30.56;35.35;100339.61;124204;1099;102371;-75
2022/08/24 10:52:55;;;;;;;41.27;8.47;;;;;;;30.56;35.46;100328.78;124452;1099;104252;-77
2022/08/24 10:55:35;;;;;;;55.23;9.57;;;;;;;30.52;35.63;100332.61;124371;1099;104159;-78
2022/08/24 10:58:32;;;;;;;44.50;7.97;;;;;;;30.51;35.62;100341.67;124414;1098;104200;-77
2022/08/24 11:01:20;;;;;;;44.83;8.00;;;;;;;30.50;35.25;100342.65;124452;1099;104150;-76
2022/08/24 11:03:59;;;;;;;41.50;8.87;;;;;;;30.50;35.69;100346.22;124501;1099;103264;-77
2022/08/24 11:06:33;;;;;;;47.60;8.80;;;;;;;30.49;35.42;100351.72;124287;1102;102868;-77
2022/08/24 11:09:09;;;;;;;37.23;7.83;;;;;;;30.50;35.58;100348.06;124280;1102;104839;-77
2022/08/24 11:11:42;;;;;;;40.33;8.63;;;;;;;30.54;35.63;100337.01;125395;1099;103276;-78
2022/08/24 11:14:33;;;;;;;40.20;7.63;;;;;;;30.56;35.74;100337.80;125011;1099;104239;-78
2022/08/24 11:17:24;;;;;;;41.10;8.03;;;;;;;30.63;35.80;100332.94;124840;1099;102861;-78
2022/08/24 11:20:02;;;;;;;39.67;7.80;;;;;;;30.82;35.51;100335.58;125276;1099;104165;-79
2022/08/24 11:22:43;;;;;;;37.20;8.00;;;;;;;30.97;35.19;100323.12;125368;1099;102191;-77
2022/08/24 11:25:30;;;;;;;40.97;8.27;;;;;;;31.20;35.32;100327.33;125122;1102;102784;-78
2022/08/24 11:28:22;;;;;;;38.97;8.97;;;;;;;31.47;35.17;100321.38;125534;1099;102300;-77
2022/08/24 11:31:09;;;;;;;45.07;8.13;;;;;;;31.66;34.85;100310.42;124958;1099;103385;-77
2022/08/24 11:34:07;;;;;;;;;;;;;;;;;;;;;
2022/08/24 11:36:52;;;;;;;;;;;;;;;;;;;;;
2022/08/24 11:39:46;;;;;;;38.17;8.23;;;;;;;31.79;34.69;100287.09;125105;1099;107191;-77
2022/08/24 11:42:51;;;;;;;43.87;8.70;;;;;;;32.01;34.16;100291.30;125138;1099;104261;-78
2022/08/24 11:46:22;;;;;;;42.53;7.90;;;;;;;32.06;34.22;100298.19;126100;1098;102248;-77
2022/08/24 11:49:11;;;;;;;36.80;7.30;;;;;;;32.14;33.92;100300.50;125733;1099;104223;-79
2022/08/24 11:52:01;;;;;;;38.70;7.77;;;;;;;32.15;32.89;100291.41;126218;1099;104226;-78
2022/08/24 11:54:46;;;;;;;38.70;8.30;;;;;;;32.17;33.09;100294.03;124410;1099;102970;-75
2022/08/24 11:57:37;;;;;;;42.47;8.23;;;;;;;32.14;33.03;100289.64;124478;1099;104048;-79
2022/08/24 12:00:34;;;;;;;45.00;7.60;;;;;;;31.97;31.18;100290.58;124541;1099;109485;-76
2022/08/24 12:03:35;;;;;;;47.30;8.27;;;;;;;31.88;31.79;100294.71;124969;1099;104262;-76
2022/08/24 12:06:34;;;;;;;47.40;8.37;;;;;;;31.83;31.66;100296.78;124980;1099;104253;-77
2022/08/24 12:09:41;;;;;;;46.40;8.13;;;;;;;31.77;31.13;100307.11;124889;1099;103116;-76
2022/08/24 12:12:25;;;;;;;47.23;9.03;;;;;;;31.75;31.03;100299.06;124968;1099;102224;-77
2022/08/24 12:15:23;;;;;;;50.77;9.00;;;;;;;31.82;31.01;100299.58;124938;1102;104153;-77
2022/08/24 12:18:03;;;;;;;49.65;8.30;;;;;;;31.92;30.39;100300.83;125516;1102;101766;-77
2022/08/24 12:20:46;;;;;;;42.43;8.10;;;;;;;32.00;30.42;100293.12;125003;1099;119171;-77